createdAt,value
2022-11-16T00:00:05.573Z,10.70
2022-11-16T00:02:35.120Z,10.00
2022-11-16T00:05:03.396Z,9.20
2022-11-16T00:07:31.412Z,13.17
2022-11-16T00:09:59.230Z,12.50
2022-11-16T00:12:27.162Z,9.17
2022-11-16T00:14:55.266Z,11.23
2022-11-16T00:17:22.987Z,9.77
2022-11-16T00:19:52.082Z,9.70
2022-11-16T00:22:19.881Z,12.20
2022-11-16T00:24:47.725Z,10.03
2022-11-16T00:27:15.613Z,11.90
2022-11-16T00:29:43.571Z,10.00
2022-11-16T00:32:12.315Z,9.53
2022-11-16T00:34:40.276Z,8.00
2022-11-16T00:37:09.502Z,8.90
2022-11-16T00:39:37.313Z,11.63
2022-11-16T00:42:05.176Z,11.47
2022-11-16T00:44:32.989Z,12.63
2022-11-16T00:47:00.941Z,10.73
2022-11-16T00:49:28.787Z,7.87
2022-11-16T00:51:56.601Z,10.73
2022-11-16T00:54:26.502Z,11.47
2022-11-16T00:56:54.730Z,11.67
2022-11-16T00:59:22.524Z,10.13
2022-11-16T01:01:53.395Z,10.30
2022-11-16T01:04:21.231Z,10.20
2022-11-16T01:06:49.125Z,11.27
2022-11-16T01:09:17.001Z,12.00
2022-11-16T01:12:08.371Z,8.23
2022-11-16T01:14:36.954Z,13.80
2022-11-16T01:17:04.940Z,13.60
2022-11-16T01:19:33.242Z,14.97
2022-11-16T01:22:01.299Z,14.33
2022-11-16T01:24:29.556Z,13.83
2022-11-16T01:26:59.234Z,14.93
2022-11-16T01:29:32.519Z,13.10
2022-11-16T01:32:02.686Z,15.17
2022-11-16T01:34:30.608Z,13.57
2022-11-16T01:37:05.396Z,14.50
2022-11-16T01:39:37.239Z,13.67
2022-11-16T01:42:06.603Z,13.90
2022-11-16T01:45:19.660Z,15.43
2022-11-16T01:47:47.807Z,16.97
2022-11-16T01:50:19.931Z,15.63
2022-11-16T01:52:57.221Z,15.33
2022-11-16T01:55:32.162Z,15.67
2022-11-16T01:58:25.482Z,16.50
2022-11-16T02:00:59.726Z,13.80
2022-11-16T02:03:38.342Z,17.30
2022-11-16T02:06:33.265Z,18.73
2022-11-16T02:09:55.710Z,20.15
2022-11-16T02:12:47.371Z,14.43
2022-11-16T02:15:30.845Z,21.37
2022-11-16T02:18:29.230Z,13.10
2022-11-16T02:21:30.416Z,17.88
2022-11-16T02:24:42.652Z,19.90
2022-11-16T02:28:01.138Z,11.00
2022-11-16T02:30:30.824Z,20.03
2022-11-16T02:33:06.256Z,22.20
2022-11-16T02:35:42.426Z,24.33
2022-11-16T02:38:19.090Z,23.47
2022-11-16T02:40:52.718Z,17.13
2022-11-16T02:43:34.244Z,18.30
2022-11-16T02:46:12.231Z,16.80
2022-11-16T02:48:46.919Z,21.20
2022-11-16T02:51:16.876Z,21.67
2022-11-16T02:54:02.086Z,20.10
2022-11-16T02:56:40.925Z,23.58
2022-11-16T02:59:13.092Z,21.80
2022-11-16T03:01:54.687Z,21.30
2022-11-16T03:04:32.292Z,18.70
2022-11-16T03:07:07.806Z,25.80
2022-11-16T03:12:16.995Z,25.00
2022-11-16T03:14:52.621Z,24.40
2022-11-16T03:20:04.427Z,19.90
2022-11-16T03:22:42.048Z,24.60
2022-11-16T03:25:14.869Z,19.60
2022-11-16T03:27:53.844Z,38.57
2022-11-16T03:30:24.818Z,21.90
2022-11-16T03:33:07.249Z,30.70
2022-11-16T03:35:46.262Z,28.43
2022-11-16T03:38:19.315Z,24.60
2022-11-16T03:40:50.859Z,31.40
2022-11-16T03:43:20.676Z,38.60
2022-11-16T03:45:49.392Z,30.33
2022-11-16T03:51:35.287Z,39.23
2022-11-16T03:54:04.948Z,41.93
2022-11-16T03:56:34.755Z,49.47
2022-11-16T03:59:03.908Z,42.30
2022-11-16T04:01:32.625Z,45.63
2022-11-16T04:04:01.461Z,44.50
2022-11-16T04:06:48.557Z,52.33
2022-11-16T04:09:37.160Z,46.57
2022-11-16T04:12:27.264Z,39.70
2022-11-16T04:15:13.705Z,62.40
2022-11-16T04:18:00.158Z,37.93
2022-11-16T04:20:46.862Z,36.77
2022-11-16T04:23:35.323Z,44.20
2022-11-16T04:26:07.883Z,39.67
2022-11-16T04:28:38.150Z,40.63
2022-11-16T04:31:25.883Z,57.33
2022-11-16T04:34:25.658Z,58.33
2022-11-16T04:37:15.169Z,55.17
2022-11-16T04:39:42.904Z,49.83
2022-11-16T04:42:17.114Z,48.93
2022-11-16T04:45:06.318Z,50.37
2022-11-16T04:47:41.334Z,59.77
2022-11-16T04:50:10.516Z,56.50
2022-11-16T04:52:40.118Z,50.40
2022-11-16T04:55:12.007Z,48.10
2022-11-16T04:57:41.306Z,50.70
2022-11-16T05:00:11.323Z,59.87
2022-11-16T05:02:40.887Z,47.70
2022-11-16T05:05:10.216Z,47.87
2022-11-16T05:07:41.277Z,61.90
2022-11-16T05:10:17.983Z,51.90
2022-11-16T05:12:47.559Z,51.50
2022-11-16T05:15:19.549Z,67.13
2022-11-16T05:17:48.581Z,55.53
2022-11-16T05:20:38.810Z,62.87
2022-11-16T05:23:29.474Z,50.93
2022-11-16T05:26:01.268Z,47.90
2022-11-16T05:28:31.565Z,53.70
2022-11-16T05:30:59.614Z,68.30
2022-11-16T05:33:29.585Z,74.00
2022-11-16T05:35:57.521Z,37.33
2022-11-16T05:38:25.452Z,56.47
2022-11-16T05:40:57.214Z,68.47
2022-11-16T05:43:25.494Z,57.90
2022-11-16T05:46:02.797Z,56.87
2022-11-16T05:48:30.608Z,48.67
2022-11-16T05:51:00.095Z,44.43
2022-11-16T05:53:31.011Z,62.00
2022-11-16T05:55:59.918Z,52.50
2022-11-16T05:58:28.703Z,53.77
2022-11-16T06:00:58.252Z,60.87
2022-11-16T06:03:29.845Z,59.03
2022-11-16T06:05:58.691Z,53.00
2022-11-16T06:08:28.984Z,56.30
2022-11-16T06:11:02.045Z,50.77
2022-11-16T06:13:30.854Z,56.97
2022-11-16T06:16:01.494Z,55.43
2022-11-16T06:18:36.726Z,60.37
2022-11-16T06:21:05.719Z,69.53
2022-11-16T06:23:34.468Z,64.27
2022-11-16T06:26:04.769Z,54.30
2022-11-16T06:28:34.634Z,58.67
2022-11-16T06:31:03.343Z,66.47
2022-11-16T06:33:36.765Z,62.60
2022-11-16T06:36:09.628Z,59.00
2022-11-16T06:38:38.441Z,62.37
2022-11-16T06:41:06.489Z,46.87
2022-11-16T06:43:40.061Z,49.37
2022-11-16T06:46:08.080Z,48.10
2022-11-16T06:48:37.694Z,54.73
2022-11-16T06:51:10.240Z,47.20
2022-11-16T06:53:38.037Z,51.67
2022-11-16T06:56:14.175Z,47.90
2022-11-16T06:58:47.224Z,55.90
2022-11-16T07:01:16.464Z,52.40
2022-11-16T07:03:47.376Z,48.07
2022-11-16T07:06:15.792Z,40.70
2022-11-16T07:08:47.353Z,44.60
2022-11-16T07:11:22.798Z,41.03
2022-11-16T07:13:51.720Z,35.37
2022-11-16T07:16:19.664Z,38.53
2022-11-16T07:18:57.743Z,37.80
2022-11-16T07:21:28.906Z,33.33
2022-11-16T07:24:00.366Z,33.50
2022-11-16T07:26:31.030Z,32.00
2022-11-16T07:29:03.503Z,35.55
2022-11-16T07:31:32.383Z,33.53
2022-11-16T07:34:19.911Z,36.03
2022-11-16T07:36:52.872Z,36.53
2022-11-16T07:39:22.998Z,34.33
2022-11-16T07:41:53.000Z,37.50
2022-11-16T07:44:29.532Z,37.80
2022-11-16T07:47:20.562Z,32.50
2022-11-16T07:49:49.910Z,34.03
2022-11-16T07:52:20.706Z,86.00
2022-11-16T07:54:58.529Z,83.43
2022-11-16T07:57:30.999Z,70.77
2022-11-16T08:00:03.869Z,63.30
2022-11-16T08:02:41.309Z,49.80
2022-11-16T08:05:16.568Z,57.73
2022-11-16T08:07:44.535Z,41.20
2022-11-16T08:10:13.009Z,32.97
2022-11-16T08:12:41.607Z,25.30
2022-11-16T08:15:11.281Z,36.10
2022-11-16T08:17:39.490Z,25.30
2022-11-16T08:20:10.006Z,25.53
2022-11-16T08:22:39.135Z,31.37
2022-11-16T08:25:11.139Z,36.27
2022-11-16T08:27:42.813Z,37.40
2022-11-16T08:30:12.970Z,33.83
2022-11-16T08:32:42.111Z,41.23
2022-11-16T08:35:10.325Z,34.80
2022-11-16T08:37:39.672Z,41.87
2022-11-16T08:40:10.485Z,36.50
2022-11-16T08:42:43.679Z,44.93
2022-11-16T08:45:14.035Z,46.57
2022-11-16T08:47:42.682Z,46.67
2022-11-16T08:50:10.749Z,51.43
2022-11-16T08:52:40.321Z,43.07
2022-11-16T08:55:10.216Z,44.87
2022-11-16T08:57:38.785Z,41.60
2022-11-16T09:00:12.249Z,62.30
2022-11-16T09:02:40.176Z,53.23
2022-11-16T09:05:13.010Z,49.83
2022-11-16T09:07:44.043Z,66.57
2022-11-16T09:10:12.350Z,51.90
2022-11-16T09:12:40.317Z,42.93
2022-11-16T09:15:14.528Z,37.87
2022-11-16T09:17:42.389Z,47.57
2022-11-16T09:20:10.830Z,38.50
2022-11-16T09:22:38.556Z,39.13
2022-11-16T09:25:09.935Z,33.33
2022-11-16T09:27:38.029Z,48.80
2022-11-16T09:30:08.080Z,33.80
2022-11-16T09:32:35.857Z,48.87
2022-11-16T09:35:09.482Z,34.67
2022-11-16T09:37:37.314Z,32.03
2022-11-16T09:40:12.419Z,38.37
2022-11-16T09:42:59.447Z,35.28
2022-11-16T09:45:39.937Z,33.73
2022-11-16T09:48:19.012Z,37.07
2022-11-16T09:50:51.611Z,39.87
2022-11-16T09:53:31.748Z,46.07
2022-11-16T09:56:06.385Z,34.83
2022-11-16T09:58:42.375Z,37.93
2022-11-16T10:01:25.430Z,32.47
2022-11-16T10:04:02.680Z,29.40
2022-11-16T10:06:45.978Z,37.53
2022-11-16T10:09:14.127Z,34.33
2022-11-16T10:12:02.895Z,32.73
2022-11-16T10:15:01.299Z,53.63
2022-11-16T10:17:46.089Z,58.17
2022-11-16T10:20:41.914Z,60.13
2022-11-16T10:23:26.596Z,50.92
2022-11-16T10:26:03.409Z,35.83
2022-11-16T10:28:56.614Z,46.37
2022-11-16T10:31:55.741Z,36.53
2022-11-16T10:34:31.280Z,44.13
2022-11-16T10:39:34.099Z,28.27
2022-11-16T10:42:09.950Z,29.63
2022-11-16T10:44:44.074Z,32.83
2022-11-16T10:47:21.775Z,23.37
2022-11-16T10:49:57.915Z,25.45
2022-11-16T10:52:26.297Z,29.67
2022-11-16T10:54:54.268Z,25.27
2022-11-16T10:57:23.723Z,21.08
2022-11-16T10:59:58.956Z,18.25
2022-11-16T11:02:35.908Z,15.68
2022-11-16T11:05:17.500Z,18.60
2022-11-16T11:07:55.372Z,17.37
2022-11-16T11:10:31.914Z,12.37
2022-11-16T11:13:24.977Z,12.90
2022-11-16T11:16:16.132Z,17.60
2022-11-16T11:18:44.211Z,14.97
2022-11-16T11:21:21.490Z,13.97
2022-11-16T11:23:52.890Z,10.43
2022-11-16T11:26:37.552Z,12.23
2022-11-16T11:29:23.863Z,11.87
2022-11-16T11:31:57.912Z,11.57
2022-11-16T11:34:30.258Z,13.23
2022-11-16T11:37:02.285Z,11.80
2022-11-16T11:39:35.754Z,11.27
2022-11-16T11:42:19.996Z,12.77
2022-11-16T11:44:57.129Z,8.20
2022-11-16T11:48:02.737Z,12.27
2022-11-16T11:50:44.507Z,10.67
2022-11-16T11:53:34.825Z,11.35
2022-11-16T11:56:03.080Z,10.53
2022-11-16T11:58:35.466Z,8.38
2022-11-16T12:01:37.829Z,7.63
2022-11-16T12:05:05.571Z,10.17
2022-11-16T12:08:06.419Z,11.27
2022-11-16T12:10:49.275Z,6.95
2022-11-16T12:13:52.470Z,7.82
2022-11-16T12:16:32.498Z,11.85
2022-11-16T12:19:35.090Z,13.30
2022-11-16T12:22:22.702Z,19.73
2022-11-16T12:25:11.442Z,15.83
2022-11-16T12:27:55.312Z,10.50
2022-11-16T12:30:24.685Z,11.40
2022-11-16T12:33:17.350Z,16.02
2022-11-16T12:35:58.086Z,17.67
2022-11-16T12:39:00.880Z,15.27
2022-11-16T12:42:14.503Z,8.67
2022-11-16T12:45:06.261Z,9.40
2022-11-16T12:47:55.399Z,9.02
2022-11-16T12:50:47.954Z,9.00
2022-11-16T12:53:41.989Z,6.30
2022-11-16T12:56:24.732Z,8.82
2022-11-16T12:59:18.649Z,4.75
2022-11-16T13:02:02.727Z,7.72
2022-11-16T13:04:37.675Z,4.63
2022-11-16T13:07:12.299Z,6.18
2022-11-16T13:09:48.433Z,4.32
2022-11-16T13:12:23.276Z,8.50
2022-11-16T13:14:56.048Z,6.20
2022-11-16T13:17:29.054Z,3.83
2022-11-16T13:20:21.804Z,5.10
2022-11-16T13:23:00.471Z,6.68
2022-11-16T13:25:40.363Z,4.97
2022-11-16T13:28:23.123Z,4.97
2022-11-16T13:31:05.326Z,5.20
2022-11-16T13:33:49.287Z,6.78
2022-11-16T13:36:45.162Z,5.63
2022-11-16T13:39:21.817Z,5.25
2022-11-16T13:42:07.526Z,4.00
2022-11-16T13:44:35.878Z,7.28
2022-11-16T13:47:18.073Z,9.32
2022-11-16T13:49:52.474Z,6.93
2022-11-16T13:52:31.568Z,4.88
2022-11-16T13:55:28.664Z,5.90
2022-11-16T13:58:02.546Z,7.20
2022-11-16T14:00:34.459Z,6.32
2022-11-16T14:03:32.428Z,5.60
2022-11-16T14:06:00.514Z,4.28
2022-11-16T14:08:53.422Z,5.80
2022-11-16T14:11:35.070Z,5.50
2022-11-16T14:14:09.252Z,8.15
2022-11-16T14:16:54.919Z,5.78
2022-11-16T14:19:55.142Z,5.65
2022-11-16T14:23:11.506Z,3.65
2022-11-16T14:25:47.261Z,7.27
2022-11-16T14:28:56.608Z,5.50
2022-11-16T14:31:30.636Z,5.67
2022-11-16T14:34:00.830Z,7.53
2022-11-16T14:36:39.977Z,7.47
2022-11-16T14:39:33.512Z,5.67
2022-11-16T14:42:06.690Z,6.67
2022-11-16T14:44:39.372Z,7.23
2022-11-16T14:47:23.953Z,6.80
2022-11-16T14:49:53.080Z,6.33
2022-11-16T14:52:32.756Z,4.90
2022-11-16T14:55:07.116Z,4.37
2022-11-16T14:57:35.419Z,6.33
2022-11-16T15:00:18.131Z,7.97
2022-11-16T15:02:52.070Z,5.63
2022-11-16T15:05:28.189Z,5.25
2022-11-16T15:07:59.988Z,6.63
2022-11-16T15:10:29.626Z,6.10
2022-11-16T15:12:58.283Z,6.33
2022-11-16T15:15:29.013Z,5.17
2022-11-16T15:18:13.209Z,5.47
2022-11-16T15:20:49.667Z,6.80
2022-11-16T15:23:19.960Z,6.40
2022-11-16T15:25:54.280Z,6.57
2022-11-16T15:28:26.127Z,5.47
2022-11-16T15:30:57.394Z,6.13
2022-11-16T15:33:31.398Z,8.27
2022-11-16T15:35:59.423Z,7.43
2022-11-16T15:38:31.058Z,7.53
2022-11-16T15:41:04.290Z,8.40
2022-11-16T15:43:45.227Z,7.10
2022-11-16T15:46:19.000Z,7.97
2022-11-16T15:48:48.993Z,6.97
2022-11-16T15:51:23.034Z,6.10
2022-11-16T15:53:53.598Z,4.70
2022-11-16T15:56:32.790Z,6.33
2022-11-16T15:59:11.330Z,4.90
2022-11-16T16:01:43.885Z,9.00
2022-11-16T16:04:17.870Z,8.30
2022-11-16T16:06:48.831Z,7.83
2022-11-16T16:09:36.783Z,5.50
2022-11-16T16:12:20.506Z,8.63
2022-11-16T16:14:50.530Z,6.83
2022-11-16T16:17:26.232Z,5.93
2022-11-16T16:19:58.043Z,6.27
2022-11-16T16:22:31.024Z,5.30
2022-11-16T16:25:01.443Z,5.57
2022-11-16T16:27:32.384Z,10.33
2022-11-16T16:30:05.916Z,8.23
2022-11-16T16:32:37.447Z,5.87
2022-11-16T16:35:16.620Z,7.60
2022-11-16T16:37:44.579Z,6.23
2022-11-16T16:40:12.555Z,6.47
2022-11-16T16:42:41.464Z,7.40
2022-11-16T16:45:17.091Z,5.77
2022-11-16T16:50:14.124Z,6.50
2022-11-16T16:52:41.942Z,4.10
2022-11-16T16:55:09.893Z,7.43
2022-11-16T16:57:37.865Z,6.80
2022-11-16T17:00:07.587Z,6.27
2022-11-16T17:02:36.607Z,7.00
2022-11-16T17:05:05.429Z,8.60
2022-11-16T17:07:34.712Z,7.43
2022-11-16T17:10:02.642Z,7.57
2022-11-16T17:12:30.441Z,6.57
2022-11-16T17:14:58.374Z,8.93
2022-11-16T17:17:26.422Z,5.70
2022-11-16T17:19:54.393Z,6.93
2022-11-16T17:22:22.212Z,6.50
2022-11-16T17:24:51.311Z,8.33
2022-11-16T17:27:19.135Z,6.60
2022-11-16T17:29:46.856Z,6.10
2022-11-16T17:32:14.632Z,8.07
2022-11-16T17:34:42.670Z,8.50
2022-11-16T17:37:11.863Z,18.50
2022-11-16T17:39:39.584Z,10.47
2022-11-16T17:42:08.854Z,7.67
2022-11-16T17:44:36.666Z,10.03
2022-11-16T17:47:04.957Z,10.57
2022-11-16T17:49:32.683Z,9.07
2022-11-16T17:52:01.595Z,10.13
2022-11-16T17:54:29.411Z,9.27
2022-11-16T17:56:57.257Z,8.50
2022-11-16T17:59:29.569Z,6.97
2022-11-16T18:01:57.947Z,6.93
2022-11-16T18:04:25.951Z,9.63
2022-11-16T18:06:54.096Z,7.67
2022-11-16T18:09:21.995Z,4.60
2022-11-16T18:11:49.860Z,7.93
2022-11-16T18:14:17.581Z,5.93
2022-11-16T18:16:47.880Z,5.97
2022-11-16T18:19:18.059Z,7.20
2022-11-16T18:21:46.907Z,5.93
2022-11-16T18:24:14.816Z,6.13
2022-11-16T18:26:42.928Z,8.07
2022-11-16T18:29:15.290Z,7.93
2022-11-16T18:31:43.373Z,7.67
2022-11-16T18:34:14.756Z,7.10
2022-11-16T18:36:42.690Z,9.67
2022-11-16T18:39:10.489Z,8.00
2022-11-16T18:41:48.564Z,8.57
2022-11-16T18:44:19.360Z,8.47
2022-11-16T18:46:47.123Z,10.27
2022-11-16T18:49:16.297Z,7.57
2022-11-16T18:51:44.032Z,9.10
2022-11-16T18:54:11.837Z,8.00
2022-11-16T18:56:39.672Z,8.63
2022-11-16T18:59:09.567Z,7.83
2022-11-16T19:01:37.536Z,8.97
2022-11-16T19:04:07.441Z,9.40
2022-11-16T19:06:36.694Z,7.27
2022-11-16T19:09:06.180Z,6.10
2022-11-16T19:11:34.049Z,9.30
2022-11-16T19:14:07.387Z,6.57
2022-11-16T19:16:36.176Z,10.47
2022-11-16T19:19:05.044Z,7.73
2022-11-16T19:21:32.935Z,9.37
2022-11-16T19:24:02.112Z,8.80
2022-11-16T19:26:30.021Z,7.77
2022-11-16T19:28:58.415Z,10.37
2022-11-16T19:31:31.228Z,8.50
2022-11-16T19:34:01.186Z,8.37
2022-11-16T19:36:30.289Z,6.83
2022-11-16T19:38:58.507Z,9.67
2022-11-16T19:41:28.442Z,6.10
2022-11-16T19:44:01.426Z,6.93
2022-11-16T19:46:32.088Z,7.87
2022-11-16T19:49:00.355Z,8.40
2022-11-16T19:51:31.067Z,8.17
2022-11-16T19:54:00.062Z,6.67
2022-11-16T19:56:29.762Z,11.53
2022-11-16T19:58:57.956Z,11.23
2022-11-16T20:01:29.177Z,9.03
2022-11-16T20:04:00.211Z,8.80
2022-11-16T20:06:30.753Z,7.77
2022-11-16T20:09:02.118Z,8.20
2022-11-16T20:11:36.315Z,8.20
2022-11-16T20:14:08.626Z,9.30
2022-11-16T20:16:39.803Z,7.33
2022-11-16T20:19:09.230Z,8.33
2022-11-16T20:21:39.366Z,7.80
2022-11-16T20:24:10.648Z,8.30
2022-11-16T20:26:44.658Z,9.30
2022-11-16T20:29:13.372Z,8.03
2022-11-16T20:31:42.771Z,10.50
2022-11-16T20:34:14.086Z,7.37
2022-11-16T20:36:44.782Z,9.63
2022-11-16T20:39:14.914Z,8.47
2022-11-16T20:41:44.772Z,8.07
2022-11-16T20:44:17.627Z,8.27
2022-11-16T20:46:45.530Z,8.87
2022-11-16T20:49:13.690Z,8.67
2022-11-16T20:51:41.975Z,10.03
2022-11-16T20:54:09.678Z,9.17
2022-11-16T20:56:37.719Z,8.50
2022-11-16T20:59:06.773Z,8.10
2022-11-16T21:01:34.681Z,8.33
2022-11-16T21:04:05.112Z,6.70
2022-11-16T21:06:33.718Z,9.30
2022-11-16T21:09:03.730Z,6.80
2022-11-16T21:11:56.020Z,8.03
2022-11-16T21:14:25.358Z,7.87
2022-11-16T21:16:53.216Z,12.30
2022-11-16T21:19:21.224Z,11.43
2022-11-16T21:21:48.971Z,8.37
2022-11-16T21:24:17.567Z,9.33
2022-11-16T21:26:45.357Z,6.67
2022-11-16T21:29:13.084Z,10.43
2022-11-16T21:31:42.433Z,10.23
2022-11-16T21:34:10.362Z,9.73
2022-11-16T21:36:38.317Z,11.03
2022-11-16T21:39:06.123Z,8.60
2022-11-16T21:41:34.385Z,7.53
2022-11-16T21:44:02.203Z,10.67
2022-11-16T21:46:29.973Z,10.47
2022-11-16T21:48:59.527Z,8.93
2022-11-16T21:51:27.712Z,12.87
2022-11-16T21:53:55.742Z,5.40
2022-11-16T21:56:25.963Z,13.03
2022-11-16T21:58:54.523Z,11.20
2022-11-16T22:01:23.819Z,11.77
2022-11-16T22:04:10.070Z,11.60
2022-11-16T22:09:25.966Z,10.57
2022-11-16T22:11:53.809Z,9.93
2022-11-16T22:14:21.672Z,8.43
2022-11-16T22:16:49.690Z,5.67
2022-11-16T22:19:17.475Z,7.63
2022-11-16T22:21:46.702Z,8.47
2022-11-16T22:24:14.496Z,11.33
2022-11-16T22:26:42.483Z,12.03
2022-11-16T22:29:10.209Z,9.73
2022-11-16T22:31:38.001Z,8.87
2022-11-16T22:34:05.955Z,5.50
2022-11-16T22:36:33.789Z,7.30
2022-11-16T22:39:03.307Z,7.87
2022-11-16T22:41:31.120Z,10.63
2022-11-16T22:43:58.938Z,9.07
2022-11-16T22:46:26.778Z,5.67
2022-11-16T22:48:54.622Z,9.97
2022-11-16T22:51:25.533Z,11.80
2022-11-16T22:53:54.284Z,10.77
2022-11-16T22:56:24.406Z,10.43
2022-11-16T22:58:52.695Z,10.23
2022-11-16T23:01:21.557Z,12.13
2022-11-16T23:03:50.025Z,12.23
2022-11-16T23:06:18.411Z,8.27
2022-11-16T23:08:46.360Z,6.70
2022-11-16T23:11:35.250Z,7.43
2022-11-16T23:14:25.482Z,6.40
2022-11-16T23:16:53.318Z,7.63
2022-11-16T23:19:40.957Z,7.00
2022-11-16T23:22:33.958Z,6.73
2022-11-16T23:25:21.895Z,7.73
2022-11-16T23:27:56.853Z,8.00
2022-11-16T23:30:26.673Z,5.55
2022-11-16T23:32:54.789Z,6.73
2022-11-16T23:35:23.260Z,8.03
2022-11-16T23:37:56.369Z,7.53
2022-11-16T23:40:26.812Z,10.63
2022-11-16T23:43:14.509Z,7.67
2022-11-16T23:45:44.931Z,9.43
2022-11-16T23:48:15.217Z,8.37
2022-11-16T23:50:44.596Z,7.27
2022-11-16T23:53:13.873Z,10.73
2022-11-16T23:55:42.008Z,7.33
2022-11-16T23:58:13.900Z,9.37
